Time;durP1;ratioP1;P1;durP2;ratioP2;P2;SDS_P1;SDS_P2;PMS_P1;PMS_P2;Temp;Humidity;BMP_temperature;BMP_pressure;BME280_temperature;BME280_humidity;BME280_pressure;Samples;Min_cycle;Max_cycle;Signal;HPM_P1;HPM_P2
2021/09/29 00:02:08;;;;;;;10.55;4.00;;;16.60;80.20;;;;;;5088527;28;20097;-73
2021/09/29 00:04:34;;;;;;;10.43;4.13;;;16.60;80.20;;;;;;5072874;28;20032;-73
2021/09/29 00:06:59;;;;;;;8.45;3.63;;;16.60;80.30;;;;;;5081745;28;20028;-73
2021/09/29 00:09:25;;;;;;;9.07;3.85;;;16.50;80.20;;;;;;5092836;28;20028;-73
2021/09/29 00:11:50;;;;;;;14.60;3.58;;;16.50;80.30;;;;;;5081113;28;20119;-73
2021/09/29 00:14:16;;;;;;;13.82;3.88;;;16.50;80.30;;;;;;5079924;28;20028;-73
2021/09/29 00:16:41;;;;;;;19.63;4.78;;;16.50;80.30;;;;;;5087672;28;20042;-73
2021/09/29 00:19:07;;;;;;;12.98;3.67;;;16.50;80.40;;;;;;5078759;28;20028;-73
2021/09/29 00:21:36;;;;;;;16.90;3.97;;;16.40;80.40;;;;;;5078696;28;20036;-73
2021/09/29 00:24:01;;;;;;;13.73;3.92;;;16.40;80.50;;;;;;5077132;28;20024;-73
2021/09/29 00:26:27;;;;;;;16.17;4.68;;;16.40;80.50;;;;;;5079674;28;20031;-73
2021/09/29 00:28:56;;;;;;;6.47;3.90;;;16.40;80.50;;;;;;5089191;28;20147;-73
2021/09/29 00:34:11;;;;;;;10.90;3.78;;;16.40;80.60;;;;;;5091460;28;20025;-73
2021/09/29 00:36:42;;;;;;;14.52;4.25;;;16.40;80.60;;;;;;5087053;28;20070;-73
2021/09/29 00:39:09;;;;;;;18.30;4.85;;;16.40;80.70;;;;;;5093934;28;20040;-73
2021/09/29 00:41:35;;;;;;;19.20;4.15;;;16.40;80.70;;;;;;5081369;28;20052;-73
2021/09/29 00:44:02;;;;;;;9.38;3.95;;;16.30;80.60;;;;;;5083255;28;20032;-73
2021/09/29 00:46:28;;;;;;;8.80;3.60;;;16.30;80.80;;;;;;5083607;28;20016;-73
2021/09/29 00:48:54;;;;;;;12.65;4.15;;;16.30;80.80;;;;;;5080781;28;20069;-73
2021/09/29 00:51:19;;;;;;;11.30;3.92;;;16.20;80.80;;;;;;5083756;28;20016;-73
2021/09/29 00:53:48;;;;;;;11.27;3.80;;;16.30;81.00;;;;;;5077083;28;20033;-74
2021/09/29 00:56:15;;;;;;;14.90;4.65;;;16.20;80.90;;;;;;5085326;28;20032;-73
2021/09/29 00:58:40;;;;;;;15.75;4.50;;;16.20;81.00;;;;;;5082985;28;20486;-74
2021/09/29 01:01:06;;;;;;;18.42;3.83;;;16.20;81.00;;;;;;5089204;28;20105;-73
2021/09/29 01:03:32;;;;;;;12.40;4.45;;;16.20;81.00;;;;;;5075981;28;20020;-73
2021/09/29 01:06:05;;;;;;;13.30;4.55;;;16.20;81.10;;;;;;5090808;28;20394;-73
2021/09/29 01:08:40;;;;;;;16.08;4.75;;;16.20;81.10;;;;;;5091001;28;20028;-73
2021/09/29 01:11:35;;;;;;;10.18;3.60;;;16.20;81.10;;;;;;5080687;28;20032;-73
2021/09/29 01:14:09;;;;;;;10.23;3.90;;;16.20;81.10;;;;;;5084628;28;20039;-73
2021/09/29 01:16:37;;;;;;;15.98;4.15;;;16.20;81.10;;;;;;5079761;28;20020;-73
2021/09/29 01:19:09;;;;;;;11.63;3.83;;;16.10;81.10;;;;;;5075121;28;20491;-73
2021/09/29 01:21:48;;;;;;;11.40;4.20;;;16.10;81.10;;;;;;5085630;28;20036;-74
2021/09/29 01:24:35;;;;;;;11.57;3.95;;;16.10;81.20;;;;;;5076042;28;20111;-73
2021/09/29 01:27:01;;;;;;;13.07;4.43;;;16.10;81.20;;;;;;5088425;28;20107;-73
2021/09/29 01:29:27;;;;;;;13.25;4.13;;;16.10;81.20;;;;;;5091049;28;20035;-73
2021/09/29 01:31:53;;;;;;;8.93;4.20;;;16.00;81.20;;;;;;5080876;28;20024;-73
2021/09/29 01:34:21;;;;;;;14.68;4.18;;;16.10;81.80;;;;;;5085229;28;20020;-73
2021/09/29 01:36:47;;;;;;;15.40;4.45;;;16.00;81.20;;;;;;5081016;28;20060;-74
2021/09/29 01:39:16;;;;;;;11.98;3.78;;;16.10;81.30;;;;;;5085214;28;20129;-74
2021/09/29 01:41:41;;;;;;;10.70;4.22;;;16.10;81.30;;;;;;5085317;28;20028;-74
2021/09/29 01:44:08;;;;;;;6.90;3.63;;;16.00;81.30;;;;;;5087443;28;20372;-74
2021/09/29 01:46:34;;;;;;;9.98;3.83;;;16.00;81.30;;;;;;5092679;28;20031;-73
2021/09/29 01:49:15;;;;;;;11.13;3.97;;;16.00;81.40;;;;;;5084981;28;20098;-73
2021/09/29 01:51:45;;;;;;;14.27;4.30;;;15.90;81.50;;;;;;5083475;28;20089;-73
2021/09/29 01:54:15;;;;;;;17.55;4.50;;;15.90;81.10;;;;;;5083303;28;20571;-73
2021/09/29 01:56:41;;;;;;;11.15;3.63;;;16.00;81.60;;;;;;5100843;28;20044;-73
2021/09/29 01:59:07;;;;;;;9.13;3.80;;;15.90;81.50;;;;;;5080956;28;20058;-73
2021/09/29 02:01:35;;;;;;;9.15;3.70;;;15.90;81.60;;;;;;5080903;28;20048;-73
2021/09/29 02:04:01;;;;;;;11.35;4.57;;;15.90;81.70;;;;;;5080055;28;20036;-73
2021/09/29 02:06:26;;;;;;;7.03;4.18;;;15.90;81.60;;;;;;5082692;28;20028;-73
2021/09/29 02:08:52;;;;;;;11.02;3.97;;;15.90;81.70;;;;;;5090879;28;20035;-73
2021/09/29 02:11:18;;;;;;;14.02;4.05;;;15.90;81.70;;;;;;5081194;28;20084;-73
2021/09/29 02:13:43;;;;;;;12.77;4.05;;;15.90;81.80;;;;;;5085791;28;20032;-73
2021/09/29 02:16:09;;;;;;;18.17;4.10;;;15.80;81.70;;;;;;5088680;28;20405;-73
2021/09/29 02:18:34;;;;;;;9.88;3.80;;;15.80;81.80;;;;;;5090133;28;20055;-73
2021/09/29 02:21:00;;;;;;;13.45;4.20;;;15.80;81.90;;;;;;5083788;28;20374;-74
2021/09/29 02:23:26;;;;;;;10.48;3.97;;;15.80;82.00;;;;;;5075786;28;20025;-73
2021/09/29 02:25:53;;;;;;;8.57;3.72;;;15.80;82.00;;;;;;5080934;28;20541;-74
2021/09/29 02:28:18;;;;;;;9.15;4.20;;;15.80;82.20;;;;;;5083816;28;20029;-73
2021/09/29 02:30:44;;;;;;;20.17;4.38;;;15.80;82.20;;;;;;5090344;28;20047;-73
2021/09/29 02:33:10;;;;;;;13.10;4.18;;;15.70;82.20;;;;;;5090520;28;20028;-73
2021/09/29 02:35:36;;;;;;;11.57;3.85;;;15.70;82.30;;;;;;5084004;28;20027;-73
2021/09/29 02:38:01;;;;;;;6.47;3.83;;;15.70;82.40;;;;;;5090821;28;20060;-73
2021/09/29 02:40:27;;;;;;;11.50;3.80;;;15.70;82.40;;;;;;5091082;28;20072;-74
2021/09/29 02:42:53;;;;;;;9.65;3.83;;;15.80;82.40;;;;;;5091721;28;20035;-73
2021/09/29 02:45:18;;;;;;;8.85;3.28;;;15.70;82.40;;;;;;5087919;28;20440;-73
2021/09/29 02:47:44;;;;;;;13.07;3.88;;;15.70;82.40;;;;;;5079833;28;20038;-74
2021/09/29 02:50:09;;;;;;;11.50;3.90;;;15.70;82.50;;;;;;5078370;28;20158;-73
2021/09/29 02:52:35;;;;;;;15.80;3.80;;;15.70;82.50;;;;;;5082365;28;20054;-73
2021/09/29 02:55:01;;;;;;;13.82;4.40;;;15.70;82.60;;;;;;5082224;28;20114;-73
2021/09/29 02:57:27;;;;;;;14.35;4.03;;;15.60;82.60;;;;;;5082018;28;20093;-73
2021/09/29 02:59:53;;;;;;;11.18;4.38;;;15.70;82.60;;;;;;5085095;28;20016;-73
2021/09/29 03:02:19;;;;;;;8.82;4.13;;;15.60;82.60;;;;;;5090254;28;20386;-73
2021/09/29 03:04:44;;;;;;;9.77;3.92;;;15.60;82.70;;;;;;5089120;28;20017;-73
2021/09/29 03:07:10;;;;;;;13.25;4.28;;;15.60;82.70;;;;;;5081302;28;20458;-73
2021/09/29 03:09:36;;;;;;;8.68;3.88;;;15.60;82.70;;;;;;5085568;28;20017;-73
2021/09/29 03:12:02;;;;;;;7.88;3.75;;;15.60;82.70;;;;;;5088738;28;20081;-74
2021/09/29 03:14:27;;;;;;;14.07;3.97;;;15.60;82.70;;;;;;5087528;28;20028;-73
2021/09/29 03:16:53;;;;;;;9.48;3.55;;;15.60;82.80;;;;;;5079499;28;20137;-73
2021/09/29 03:19:19;;;;;;;15.20;3.80;;;15.60;82.80;;;;;;5082522;28;20021;-73
2021/09/29 03:21:45;;;;;;;18.38;4.57;;;15.60;82.80;;;;;;5096630;28;20089;-73
2021/09/29 03:24:11;;;;;;;9.55;3.60;;;15.60;82.80;;;;;;5077769;28;20036;-74
2021/09/29 03:26:36;;;;;;;16.05;3.83;;;15.60;82.90;;;;;;5079659;28;20096;-73
2021/09/29 03:29:02;;;;;;;10.68;3.50;;;15.60;82.90;;;;;;5090433;28;20466;-73
2021/09/29 03:31:28;;;;;;;11.75;4.25;;;15.60;82.90;;;;;;5077886;28;20384;-73
2021/09/29 03:33:54;;;;;;;9.25;3.95;;;15.60;83.00;;;;;;5083580;28;20399;-73
2021/09/29 03:36:23;;;;;;;10.10;4.13;;;15.50;83.00;;;;;;5091851;28;20053;-73
2021/09/29 03:38:48;;;;;;;8.93;4.18;;;15.50;83.00;;;;;;5080576;28;20056;-73
2021/09/29 03:41:14;;;;;;;13.10;4.43;;;15.50;83.10;;;;;;5093099;28;20023;-73
2021/09/29 03:43:39;;;;;;;15.30;3.95;;;15.50;83.20;;;;;;5079497;28;20020;-74
2021/09/29 03:46:05;;;;;;;8.07;3.78;;;15.50;83.30;;;;;;5092090;28;20035;-73
2021/09/29 03:48:31;;;;;;;7.57;3.85;;;15.50;83.30;;;;;;5089526;28;20032;-74
2021/09/29 03:50:56;;;;;;;10.60;4.10;;;15.50;83.40;;;;;;5091382;28;20074;-73
2021/09/29 03:53:22;;;;;;;9.43;3.55;;;15.50;83.50;;;;;;5092082;28;20051;-73
2021/09/29 03:55:48;;;;;;;9.73;3.92;;;15.50;83.60;;;;;;5090673;28;20487;-73
2021/09/29 03:58:18;;;;;;;10.77;3.97;;;15.40;83.60;;;;;;5087634;28;20386;-73
2021/09/29 04:00:45;;;;;;;10.70;3.78;;;15.40;83.70;;;;;;5090146;28;20028;-74
2021/09/29 04:03:11;;;;;;;15.10;4.30;;;15.40;83.80;;;;;;5085665;28;20032;-73
2021/09/29 04:05:38;;;;;;;11.02;3.58;;;15.40;83.90;;;;;;5095899;28;20020;-73
2021/09/29 04:08:04;;;;;;;11.48;4.10;;;15.40;83.90;;;;;;5088658;28;20028;-73
2021/09/29 04:10:30;;;;;;;12.98;4.30;;;15.40;84.10;;;;;;5087765;28;20063;-74
2021/09/29 04:12:56;;;;;;;15.02;4.63;;;15.40;84.10;;;;;;5084275;28;20052;-73
2021/09/29 04:15:22;;;;;;;10.27;4.15;;;15.40;84.20;;;;;;5087040;28;20102;-73
2021/09/29 04:17:47;;;;;;;11.38;3.97;;;15.30;84.20;;;;;;5078541;28;20094;-73
2021/09/29 04:20:13;;;;;;;7.97;3.70;;;15.40;84.30;;;;;;5090556;28;20492;-73
2021/09/29 04:22:39;;;;;;;11.85;4.60;;;15.40;84.30;;;;;;5085369;28;20541;-73
2021/09/29 04:25:05;;;;;;;12.77;4.60;;;15.30;84.30;;;;;;5085946;28;20079;-73
2021/09/29 04:27:31;;;;;;;11.55;4.30;;;15.30;84.30;;;;;;5095854;28;20051;-73
2021/09/29 04:29:56;;;;;;;7.80;3.83;;;15.30;84.40;;;;;;5081091;28;20487;-73
2021/09/29 04:32:22;;;;;;;11.85;4.90;;;15.30;84.40;;;;;;5092348;28;20089;-73
2021/09/29 04:34:48;;;;;;;11.90;3.92;;;15.30;84.50;;;;;;5081677;28;20436;-73
2021/09/29 04:37:13;;;;;;;11.77;4.22;;;15.30;84.60;;;;;;5091043;28;20036;-73
2021/09/29 04:39:39;;;;;;;15.65;4.65;;;15.30;84.60;;;;;;5087300;28;20065;-73
2021/09/29 04:42:05;;;;;;;15.05;4.47;;;15.30;84.70;;;;;;5088501;28;20032;-73
2021/09/29 04:44:30;;;;;;;9.82;4.32;;;15.30;84.70;;;;;;5085149;28;20103;-73
2021/09/29 04:46:56;;;;;;;10.48;4.15;;;15.30;84.70;;;;;;5092667;28;20387;-73
2021/09/29 04:49:22;;;;;;;12.82;4.18;;;15.30;84.80;;;;;;5077509;28;20034;-73
2021/09/29 04:51:48;;;;;;;11.57;4.82;;;15.30;84.80;;;;;;5076293;28;20043;-73
2021/09/29 04:54:13;;;;;;;12.77;4.38;;;15.30;84.80;;;;;;5077525;28;20024;-71
2021/09/29 04:56:39;;;;;;;12.68;4.30;;;15.30;84.80;;;;;;5086885;28;20467;-75
2021/09/29 04:59:05;;;;;;;10.68;4.50;;;15.30;84.90;;;;;;5088309;28;20032;-73
2021/09/29 05:01:33;;;;;;;12.63;4.38;;;15.30;84.90;;;;;;5078290;28;20033;-73
2021/09/29 05:03:59;;;;;;;13.80;4.50;;;15.30;84.90;;;;;;5081675;28;20036;-73
2021/09/29 05:06:28;;;;;;;15.35;4.40;;;15.20;84.90;;;;;;5089101;28;20104;-73
2021/09/29 05:08:54;;;;;;;18.25;4.50;;;15.20;84.90;;;;;;5074620;28;20111;-73
2021/09/29 05:11:24;;;;;;;11.48;4.50;;;15.20;84.90;;;;;;5078308;28;20069;-75
2021/09/29 05:13:50;;;;;;;10.27;4.70;;;15.20;84.90;;;;;;5084552;28;20063;-75
2021/09/29 05:16:16;;;;;;;11.18;5.55;;;15.20;84.90;;;;;;5079138;28;20040;-74
2021/09/29 05:18:42;;;;;;;11.48;4.50;;;15.20;84.80;;;;;;5085595;28;20028;-74
2021/09/29 05:21:08;;;;;;;15.75;5.45;;;15.20;84.80;;;;;;5080509;28;20124;-73
2021/09/29 05:23:33;;;;;;;16.23;4.70;;;15.20;84.80;;;;;;5075883;28;20028;-77
2021/09/29 05:25:59;;;;;;;11.75;4.93;;;15.20;84.80;;;;;;5074921;28;20028;-76
2021/09/29 05:28:36;;;;;;;11.13;4.20;;;15.20;84.90;;;;;;5079202;28;20040;-76
2021/09/29 05:31:03;;;;;;;12.68;5.30;;;15.20;85.00;;;;;;5072844;28;20479;-76
2021/09/29 05:33:29;;;;;;;12.48;4.28;;;15.20;85.00;;;;;;5074521;28;20074;-77
2021/09/29 05:35:55;;;;;;;10.63;4.18;;;15.10;85.00;;;;;;5075233;28;20111;-76
2021/09/29 05:38:20;;;;;;;12.93;4.93;;;15.10;85.00;;;;;;5079547;28;20205;-75
2021/09/29 05:40:46;;;;;;;21.58;4.68;;;15.10;85.10;;;;;;5073503;28;20025;-75
2021/09/29 05:43:12;;;;;;;12.32;5.20;;;15.10;85.10;;;;;;5073660;28;20032;-75
2021/09/29 05:45:38;;;;;;;11.23;4.55;;;15.10;85.20;;;;;;5075264;28;20024;-75
2021/09/29 05:48:04;;;;;;;10.20;4.93;;;15.10;85.20;;;;;;5089124;28;20364;-76
2021/09/29 05:50:29;;;;;;;14.45;4.78;;;15.10;85.30;;;;;;5074553;28;20482;-74
2021/09/29 05:52:55;;;;;;;9.77;4.32;;;15.10;85.30;;;;;;5072937;28;20024;-83
2021/09/29 05:55:21;;;;;;;14.15;5.15;;;15.00;85.30;;;;;;5081915;28;20035;-79
2021/09/29 05:57:47;;;;;;;13.40;4.70;;;15.00;85.30;;;;;;5082770;28;20143;-81
2021/09/29 06:00:13;;;;;;;18.15;4.80;;;15.10;85.50;;;;;;5077316;28;20067;-81
2021/09/29 06:02:40;;;;;;;12.90;5.47;;;15.00;85.50;;;;;;5074638;28;20036;-81
2021/09/29 06:05:06;;;;;;;10.70;4.47;;;15.00;86.10;;;;;;5078531;28;20024;-81
2021/09/29 06:07:34;;;;;;;15.32;5.70;;;15.00;85.60;;;;;;5080781;28;20379;-82
2021/09/29 06:10:00;;;;;;;9.18;4.63;;;15.00;85.60;;;;;;5081026;28;20063;-81
2021/09/29 06:12:26;;;;;;;10.32;5.07;;;15.00;85.60;;;;;;5076070;28;20044;-82
2021/09/29 06:14:54;;;;;;;10.80;4.63;;;15.00;85.90;;;;;;5074086;28;20373;-81
2021/09/29 06:17:24;;;;;;;12.50;4.53;;;15.00;85.80;;;;;;5077455;28;21548;-83
2021/09/29 06:19:54;;;;;;;10.25;5.18;;;15.00;86.40;;;;;;5078596;28;20060;-83
2021/09/29 06:22:21;;;;;;;10.30;4.93;;;15.00;85.90;;;;;;5075132;28;20036;-83
2021/09/29 06:24:47;;;;;;;10.93;4.88;;;15.00;85.90;;;;;;5075250;28;20056;-74
2021/09/29 06:27:13;;;;;;;8.23;4.88;;;15.00;86.00;;;;;;5083083;28;20479;-75
2021/09/29 06:29:39;;;;;;;10.38;4.88;;;15.00;86.10;;;;;;5074155;28;20013;-75
2021/09/29 06:32:05;;;;;;;10.95;4.97;;;15.00;86.10;;;;;;5076278;28;20024;-74
2021/09/29 06:34:31;;;;;;;9.35;4.18;;;15.00;86.30;;;;;;5071939;28;20037;-74
2021/09/29 06:36:57;;;;;;;8.15;4.35;;;15.00;86.40;;;;;;5076558;28;20055;-74
2021/09/29 06:39:22;;;;;;;11.98;4.63;;;15.00;86.50;;;;;;5078071;28;20482;-74
2021/09/29 06:41:48;;;;;;;12.13;4.95;;;15.00;86.50;;;;;;5073792;28;20531;-73
2021/09/29 06:44:15;;;;;;;11.27;5.15;;;15.00;86.60;;;;;;5072196;28;20055;-74
2021/09/29 06:46:40;;;;;;;12.82;4.45;;;15.00;86.60;;;;;;5076459;28;20090;-74
2021/09/29 06:49:06;;;;;;;12.27;4.57;;;15.00;86.70;;;;;;5076284;28;20491;-74
2021/09/29 06:51:32;;;;;;;12.98;4.43;;;15.00;86.70;;;;;;5077101;28;20450;-74
2021/09/29 06:53:58;;;;;;;13.90;5.25;;;15.00;86.70;;;;;;5075691;28;20401;-74
2021/09/29 06:56:24;;;;;;;7.47;3.90;;;15.00;86.70;;;;;;5073042;28;20032;-74
2021/09/29 06:58:52;;;;;;;11.30;5.28;;;15.10;86.90;;;;;;5075505;28;20531;-74
2021/09/29 07:01:21;;;;;;;10.32;5.03;;;15.10;86.90;;;;;;5080431;28;20032;-74
2021/09/29 07:03:47;;;;;;;12.35;5.00;;;15.10;86.90;;;;;;5073864;28;20033;-75
2021/09/29 07:06:13;;;;;;;17.15;4.53;;;15.10;87.00;;;;;;5076543;28;20035;-74
2021/09/29 07:08:39;;;;;;;14.15;4.57;;;15.10;86.90;;;;;;5078569;28;20059;-74
2021/09/29 07:11:05;;;;;;;15.85;5.07;;;15.10;87.00;;;;;;5085492;28;20466;-74
2021/09/29 07:13:31;;;;;;;19.30;5.65;;;15.10;87.10;;;;;;5085481;28;20067;-74
2021/09/29 07:15:57;;;;;;;11.77;4.03;;;15.10;87.20;;;;;;5079421;28;20119;-74
2021/09/29 07:18:28;;;;;;;9.93;4.28;;;15.20;87.20;;;;;;5082273;28;20509;-74
2021/09/29 07:20:54;;;;;;;6.47;3.58;;;15.20;87.10;;;;;;5084945;28;20116;-75
2021/09/29 07:23:20;;;;;;;13.50;4.75;;;15.20;87.20;;;;;;5079448;28;20089;-74
2021/09/29 07:25:46;;;;;;;16.52;4.53;;;15.20;87.20;;;;;;5075761;28;20056;-73
2021/09/29 07:28:11;;;;;;;17.83;4.90;;;15.20;87.30;;;;;;5091250;28;20627;-73
2021/09/29 07:30:38;;;;;;;19.77;4.25;;;15.20;87.20;;;;;;5078216;28;20033;-73
2021/09/29 07:33:06;;;;;;;7.70;3.00;;;15.20;87.10;;;;;;5086114;28;20456;-73
2021/09/29 07:35:33;;;;;;;12.35;4.90;;;15.30;87.10;;;;;;5076009;28;20036;-74
2021/09/29 07:38:00;;;;;;;13.57;5.05;;;15.30;87.00;;;;;;5076393;28;20043;-74
2021/09/29 07:40:27;;;;;;;7.97;3.40;;;15.30;87.20;;;;;;5073509;28;20040;-74
2021/09/29 07:42:53;;;;;;;12.27;4.25;;;15.30;87.10;;;;;;5075064;28;20036;-73
2021/09/29 07:45:18;;;;;;;10.95;4.18;;;15.40;87.00;;;;;;5072923;28;20391;-73
2021/09/29 07:47:44;;;;;;;15.95;4.25;;;15.40;86.90;;;;;;5079326;28;20103;-74
2021/09/29 07:50:12;;;;;;;10.27;3.97;;;15.40;87.00;;;;;;5075745;28;20064;-74
2021/09/29 07:52:38;;;;;;;9.60;3.75;;;15.40;86.90;;;;;;5078047;28;20024;-74
2021/09/29 07:55:05;;;;;;;10.68;3.80;;;15.50;86.70;;;;;;5082112;28;20028;-74
2021/09/29 07:57:31;;;;;;;8.27;3.40;;;15.40;86.30;;;;;;5084635;28;20043;-73
2021/09/29 07:59:56;;;;;;;6.25;3.13;;;15.50;86.40;;;;;;5090041;28;20076;-74
2021/09/29 08:02:22;;;;;;;9.77;4.22;;;15.40;86.30;;;;;;5085395;28;20455;-73
2021/09/29 08:04:47;;;;;;;12.43;3.67;;;15.50;86.40;;;;;;5081646;28;20028;-74
2021/09/29 08:07:14;;;;;;;6.05;2.70;;;15.50;86.20;;;;;;5084506;28;20039;-74
2021/09/29 08:09:40;;;;;;;15.70;4.20;;;15.40;85.90;;;;;;5078159;28;20024;-73
2021/09/29 08:12:06;;;;;;;15.75;3.67;;;15.50;85.70;;;;;;5077727;28;20118;-73
2021/09/29 08:14:32;;;;;;;8.68;3.60;;;15.50;85.90;;;;;;5077593;28;20062;-74
2021/09/29 08:16:58;;;;;;;7.60;3.97;;;15.50;86.00;;;;;;5082448;28;20040;-73
2021/09/29 08:19:24;;;;;;;7.35;3.47;;;15.50;86.00;;;;;;5084170;28;20034;-74
2021/09/29 08:21:50;;;;;;;5.28;3.65;;;15.50;86.10;;;;;;5085933;28;20107;-73
2021/09/29 08:24:21;;;;;;;6.60;4.20;;;15.50;86.20;;;;;;5089403;28;20467;-73
2021/09/29 08:32:09;;;;;;;8.80;3.88;;;15.50;86.60;;;;;;5095080;28;20386;-73
2021/09/29 08:34:39;;;;;;;14.32;4.82;;;15.60;86.50;;;;;;5076452;28;20063;-73
2021/09/29 08:37:21;;;;;;;11.45;3.67;;;15.60;86.30;;;;;;5088947;28;20044;-73
2021/09/29 08:39:59;;;;;;;11.18;4.35;;;15.60;86.60;;;;;;5089744;28;20483;-74
2021/09/29 08:50:10;;;;;;;8.85;3.58;;;15.70;87.80;;;;;;5079966;28;20437;-74
2021/09/29 08:53:30;;;;;;;12.98;3.42;;;15.70;88.00;;;;;;5091297;28;20032;-73
2021/09/29 09:16:58;;;;;;;14.40;4.15;;;15.80;87.50;;;;;;5081486;28;20036;-73
2021/09/29 09:19:31;;;;;;;10.35;4.05;;;15.80;87.60;;;;;;5076972;28;20055;-73
2021/09/29 09:22:00;;;;;;;10.60;3.63;;;15.80;88.10;;;;;;5077999;28;20059;-74
2021/09/29 09:24:29;;;;;;;10.10;3.60;;;15.80;88.00;;;;;;5081279;28;20032;-73
2021/09/29 09:27:03;;;;;;;11.55;3.95;;;15.90;88.40;;;;;;5088701;28;20035;-73
2021/09/29 09:29:30;;;;;;;11.35;3.20;;;15.90;88.40;;;;;;5083761;28;20430;-73
2021/09/29 09:32:25;;;;;;;4.13;2.47;;;15.90;88.20;;;;;;5084929;28;20452;-73
2021/09/29 09:35:05;;;;;;;8.57;3.97;;;15.90;87.30;;;;;;5061898;28;20037;-74
2021/09/29 09:37:31;;;;;;;8.93;3.00;;;15.90;87.70;;;;;;5084306;28;20040;-73
2021/09/29 09:40:09;;;;;;;11.20;3.92;;;15.90;87.90;;;;;;5088926;28;20068;-73
2021/09/29 09:42:43;;;;;;;12.13;3.13;;;15.90;88.00;;;;;;5086551;28;20035;-74
2021/09/29 09:45:09;;;;;;;8.82;3.13;;;16.00;88.00;;;;;;5084463;28;20112;-74
2021/09/29 09:47:42;;;;;;;9.95;3.72;;;16.00;88.80;;;;;;5092137;28;20055;-77
2021/09/29 09:50:08;;;;;;;7.93;3.83;;;16.00;88.40;;;;;;5077077;28;20055;-79
2021/09/29 09:52:38;;;;;;;6.95;3.30;;;16.00;88.30;;;;;;5080473;28;20061;-79
2021/09/29 09:55:15;;;;;;;4.40;1.58;;;16.10;88.60;;;;;;5079985;28;20024;-80
2021/09/29 09:57:42;;;;;;;3.20;1.88;;;16.10;87.70;;;;;;5079404;28;20046;-77
2021/09/29 10:00:11;;;;;;;8.77;3.08;;;16.00;87.00;;;;;;5075578;28;20025;-78
2021/09/29 10:02:42;;;;;;;2.55;1.67;;;16.00;86.90;;;;;;5077609;28;20028;-78
2021/09/29 10:05:10;;;;;;;7.65;3.50;;;16.00;86.80;;;;;;5075151;28;20485;-78
2021/09/29 10:07:37;;;;;;;10.23;3.58;;;16.00;87.20;;;;;;5075565;28;20024;-77
2021/09/29 10:10:10;;;;;;;7.80;2.85;;;16.00;87.10;;;;;;5081174;28;20046;-77
2021/09/29 10:23:17;;;;;;;7.03;3.22;;;16.00;87.10;;;;;;5080686;28;20028;-78
2021/09/29 10:28:31;;;;;;;6.18;2.15;;;15.90;87.00;;;;;;5074270;28;20028;-80
2021/09/29 10:33:27;;;;;;;12.15;3.28;;;15.90;87.40;;;;;;5078413;28;20016;-76
2021/09/29 10:36:10;;;;;;;6.88;3.33;;;15.90;87.80;;;;;;5072824;28;20036;-74
2021/09/29 10:41:09;;;;;;;5.50;2.58;;;16.00;88.00;;;;;;5077465;28;20135;-73
2021/09/29 10:46:30;;;;;;;5.40;2.50;;;16.00;87.90;;;;;;5074310;28;20032;-76
2021/09/29 10:51:49;;;;;;;5.43;2.33;;;16.00;88.20;;;;;;5078761;28;20459;-73
2021/09/29 11:30:46;;;;;;;3.30;1.42;;;15.80;89.50;;;;;;5082854;28;20028;-74
2021/09/29 11:33:34;;;;;;;2.63;1.45;;;15.80;89.90;;;;;;5075984;28;20514;-74
2021/09/29 12:11:43;;;;;;;0.68;0.68;;;15.30;90.70;;;;;;5076402;28;20506;-76
2021/09/29 12:14:16;;;;;;;1.08;0.50;;;15.30;90.80;;;;;;5083647;28;20372;-76
2021/09/29 12:16:43;;;;;;;0.30;0.30;;;15.30;90.80;;;;;;5081431;28;20090;-76
2021/09/29 12:19:14;;;;;;;0.40;0.40;;;15.30;90.90;;;;;;5078890;28;20037;-76
2021/09/29 12:21:51;;;;;;;0.30;0.30;;;15.30;90.90;;;;;;5080409;28;20103;-76
2021/09/29 12:24:35;;;;;;;0.45;0.30;;;15.30;90.90;;;;;;5077221;28;20123;-75
2021/09/29 12:27:02;;;;;;;;;;;15.30;91.00;;;;;;5078630;28;20020;-76
2021/09/29 12:32:14;;;;;;;0.40;0.40;;;15.30;91.00;;;;;;5078163;28;20029;-76
2021/09/29 12:35:03;;;;;;;0.20;0.20;;;15.20;91.10;;;;;;5085561;28;20434;-75
2021/09/29 12:37:29;;;;;;;1.65;0.32;;;15.10;91.10;;;;;;5077097;28;20119;-75
2021/09/29 12:39:56;;;;;;;0.55;0.55;;;15.10;91.20;;;;;;5074747;28;20127;-76
2021/09/29 12:42:33;;;;;;;0.20;0.20;;;15.10;91.10;;;;;;5077470;28;20036;-76
2021/09/29 12:44:58;;;;;;;1.20;0.30;;;15.00;91.10;;;;;;5080961;28;20028;-76
2021/09/29 12:47:37;;;;;;;0.40;0.40;;;15.10;91.10;;;;;;5086020;28;20024;-76
2021/09/29 12:50:15;;;;;;;4.30;0.70;;;15.00;91.00;;;;;;5081440;28;20444;-76
2021/09/29 12:52:59;;;;;;;0.85;0.43;;;15.00;91.00;;;;;;5079820;28;20479;-76
2021/09/29 12:55:33;;;;;;;1.08;0.40;;;15.10;91.00;;;;;;5085725;28;20036;-76
2021/09/29 12:57:59;;;;;;;1.30;0.50;;;15.10;90.90;;;;;;5076109;28;20127;-76
2021/09/29 13:00:24;;;;;;;0.25;0.25;;;15.10;90.90;;;;;;5077463;28;20112;-76
2021/09/29 13:02:50;;;;;;;1.75;0.40;;;15.10;90.90;;;;;;5074674;28;20119;-76
2021/09/29 13:05:16;;;;;;;0.35;0.28;;;15.10;90.90;;;;;;5077272;28;20029;-76
2021/09/29 13:07:41;;;;;;;0.80;0.40;;;15.10;90.80;;;;;;5076315;28;20032;-76
2021/09/29 13:10:08;;;;;;;0.20;0.20;;;15.10;90.80;;;;;;5079122;28;20024;-76
2021/09/29 13:12:34;;;;;;;1.92;0.82;;;15.20;90.80;;;;;;5080297;28;20039;-76
2021/09/29 13:14:59;;;;;;;2.33;0.45;;;15.20;90.80;;;;;;5075661;28;20020;-77
2021/09/29 13:17:28;;;;;;;0.95;0.40;;;15.20;90.80;;;;;;5077505;28;20468;-76
2021/09/29 13:19:59;;;;;;;0.65;0.40;;;15.20;90.70;;;;;;5075155;28;20041;-76
2021/09/29 13:22:26;;;;;;;0.35;0.28;;;15.20;90.70;;;;;;5075890;28;20033;-76
2021/09/29 13:27:38;;;;;;;0.50;0.50;;;15.20;90.70;;;;;;5079508;28;20059;-76
2021/09/29 13:38:14;;;;;;;2.28;0.57;;;15.30;90.60;;;;;;5074308;28;20056;-74
2021/09/29 13:40:43;;;;;;;1.75;0.50;;;15.30;90.50;;;;;;5093338;28;20035;-75
2021/09/29 13:43:09;;;;;;;5.88;0.70;;;15.30;90.50;;;;;;5093350;28;20086;-75
2021/09/29 13:45:36;;;;;;;1.65;0.40;;;15.30;90.50;;;;;;5082638;28;20526;-75
2021/09/29 13:48:02;;;;;;;0.20;0.20;;;15.30;90.40;;;;;;5093902;28;20378;-74
2021/09/29 13:50:28;;;;;;;2.17;0.47;;;15.30;90.40;;;;;;5086224;28;20024;-75
2021/09/29 13:52:54;;;;;;;0.35;0.35;;;15.30;90.40;;;;;;5072800;28;20032;-74
2021/09/29 13:55:22;;;;;;;0.30;0.30;;;15.30;90.40;;;;;;5082369;28;20060;-74
2021/09/29 13:57:58;;;;;;;1.30;0.63;;;15.20;90.40;;;;;;5076833;28;20045;-75
2021/09/29 14:03:15;;;;;;;0.10;0.10;;;15.20;90.40;;;;;;5090664;28;20481;-75
2021/09/29 14:30:33;;;;;;;1.13;0.50;;;15.10;90.60;;;;;;5073777;28;20035;-76
2021/09/29 14:33:04;;;;;;;1.08;0.85;;;15.00;90.60;;;;;;5076703;28;20070;-76
2021/09/29 14:35:31;;;;;;;4.57;0.80;;;15.00;90.60;;;;;;5077529;28;20028;-76
2021/09/29 14:37:57;;;;;;;1.00;0.68;;;15.00;90.70;;;;;;5074145;28;20135;-76
2021/09/29 14:40:24;;;;;;;1.73;0.60;;;15.00;90.80;;;;;;5075095;28;20108;-77
2021/09/29 14:42:51;;;;;;;3.58;0.98;;;14.90;90.90;;;;;;5074866;28;20106;-76
2021/09/29 14:45:19;;;;;;;0.73;0.40;;;14.90;91.00;;;;;;5077061;28;20510;-76
2021/09/29 14:47:46;;;;;;;0.73;0.35;;;14.80;91.10;;;;;;5071256;28;20040;-76
2021/09/29 14:50:11;;;;;;;3.95;0.70;;;14.70;91.10;;;;;;5074061;28;20048;-76
2021/09/29 14:52:37;;;;;;;1.02;0.40;;;14.60;91.00;;;;;;5074137;28;20032;-76
2021/09/29 14:55:03;;;;;;;5.03;0.60;;;14.60;91.10;;;;;;5076416;28;20089;-76
2021/09/29 14:57:29;;;;;;;1.50;0.47;;;14.50;91.10;;;;;;5077354;28;20102;-75
2021/09/29 14:59:54;;;;;;;0.65;0.60;;;14.50;91.10;;;;;;5078648;28;20032;-76
2021/09/29 15:02:20;;;;;;;3.92;0.80;;;14.50;91.10;;;;;;5075509;28;20024;-77
2021/09/29 15:04:46;;;;;;;0.93;0.52;;;14.50;91.10;;;;;;5078376;28;20043;-77
2021/09/29 15:07:13;;;;;;;0.55;0.45;;;14.50;91.10;;;;;;5074381;28;20391;-77
2021/09/29 15:09:39;;;;;;;0.65;0.60;;;14.50;91.00;;;;;;5078274;28;20032;-82
2021/09/29 15:12:06;;;;;;;0.75;0.40;;;14.50;91.00;;;;;;5075849;28;20028;-85
2021/09/29 15:15:23;;;;;;;0.30;0.30;;;14.50;90.90;;;;;;5074150;28;20040;-80
2021/09/29 15:17:40;;;;;;;1.35;0.75;;;14.50;90.90;;;;;;5060018;28;20078;-82
2021/09/29 15:46:39;;;;;;;7.43;1.05;;;14.10;91.00;;;;;;5080753;28;20028;-76
2021/09/29 15:49:23;;;;;;;5.05;1.15;;;14.00;91.10;;;;;;5087317;28;20032;-77
2021/09/29 15:55:31;;;;;;;7.00;1.25;;;13.90;91.30;;;;;;5092294;28;20036;-77
2021/09/29 16:00:11;;;;;;;4.07;1.27;;;13.80;91.40;;;;;;5080460;28;20047;-76
2021/09/29 16:31:29;;;;;;;3.53;1.08;;;13.60;91.60;;;;;;5079239;28;20467;-74
2021/09/29 16:33:56;;;;;;;6.57;1.40;;;13.60;91.60;;;;;;5077416;28;20490;-75
2021/09/29 16:36:23;;;;;;;5.38;0.77;;;13.60;91.60;;;;;;5082645;28;20437;-75
2021/09/29 16:38:50;;;;;;;9.95;1.42;;;13.50;91.60;;;;;;5081549;28;20127;-75
2021/09/29 16:41:18;;;;;;;5.18;1.33;;;13.50;91.60;;;;;;5077621;28;20052;-76